Time;durP1;ratioP1;P1;durP2;ratioP2;P2;SDS_P1;SDS_P2;PMS_P1;PMS_P2;Temp;Humidity;BMP_temperature;BMP_pressure;BME280_temperature;BME280_humidity;BME280_pressure;Samples;Min_cycle;Max_cycle;Signal;HPM_P1;HPM_P2
2023/03/22 00:01:20;;;;;;;;;;;;;;;8.07;71.43;99890.84;4435272;32;34035;-84
2023/03/22 00:03:48;;;;;;;;;;;;;;;8.73;69.14;99896.19;4394166;32;34081;-82
2023/03/22 00:06:15;;;;;;;;;;;;;;;9.80;65.32;99881.81;4441338;32;34267;-78
2023/03/22 00:08:43;;;;;;;;;;;;;;;10.47;61.64;99885.84;4401774;32;33442;-81
2023/03/22 00:11:10;;;;;;;;;;;;;;;10.10;62.12;99886.66;4413996;32;34565;-82
2023/03/22 00:13:38;;;;;;;;;;;;;;;10.07;62.86;99883.97;4409687;32;34288;-86
2023/03/22 00:16:05;;;;;;;;;;;;;;;10.15;62.92;99882.62;4401278;32;34080;-80
2023/03/22 00:18:33;;;;;;;;;;;;;;;10.25;62.38;99877.06;4448406;32;33606;-84
2023/03/22 00:21:00;;;;;;;;;;;;;;;9.93;63.34;99876.41;4390820;32;33969;-83
2023/03/22 00:23:28;;;;;;;;;;;;;;;9.40;64.56;99878.09;4440986;32;34943;-82
2023/03/22 00:25:55;;;;;;;;;;;;;;;8.90;66.57;99873.81;4403464;32;34746;-82
2023/03/22 00:28:23;;;;;;;;;;;;;;;8.66;68.22;99878.56;4453801;32;33221;-82
2023/03/22 00:30:55;;;;;;;;;;;;;;;8.82;67.84;99875.97;4420651;32;34836;-83
2023/03/22 00:33:26;;;;;;;;;;;;;;;9.55;65.34;99874.53;4405478;32;33631;-83
2023/03/22 00:35:56;;;;;;;;;;;;;;;9.82;64.11;99877.59;4455048;32;34301;-82
2023/03/22 00:38:23;;;;;;;;;;;;;;;9.86;63.63;99869.16;4393860;32;32227;-81
2023/03/22 00:41:12;;;;;;;;;;;;;;;10.01;62.46;99869.91;4417342;32;34727;-84
2023/03/22 00:43:40;;;;;;;;;;;;;;;9.05;66.34;99871.13;4393458;32;34166;-84
2023/03/22 00:46:07;;;;;;;;;;;;;;;9.07;65.58;99866.94;4384521;32;32269;-81
2023/03/22 00:48:35;;;;;;;;;;;;;;;8.36;68.13;99878.63;4429967;32;33022;-83
2023/03/22 00:51:03;;;;;;;;;;;;;;;8.42;68.28;99873.88;4360890;32;34078;-82
2023/03/22 00:53:35;;;;;;;;;;;;;;;8.52;68.08;99874.34;4376521;32;34062;-81
2023/03/22 00:56:03;;;;;;;;;;;;;;;8.27;69.05;99878.16;4385915;32;33730;-81
2023/03/22 00:58:34;;;;;;;;;;;;;;;7.25;73.07;99872.37;4381329;32;33504;-79
2023/03/22 01:01:01;;;;;;;;;;;;;;;6.78;75.39;99877.25;4399833;32;34103;-85
2023/03/22 01:03:29;;;;;;;;;;;;;;;6.34;78.05;99878.87;4402106;32;34245;-80
2023/03/22 01:05:56;;;;;;;;;;;;;;;6.41;78.91;99881.03;4404644;32;34084;-81
2023/03/22 01:08:24;;;;;;;;;;;;;;;6.58;78.11;99873.47;4391862;32;32833;-83
2023/03/22 01:10:52;;;;;;;;;;;;;;;7.03;76.21;99864.16;4393828;32;33851;-83
2023/03/22 01:13:19;;;;;;;;;;;;;;;7.56;73.86;99869.00;4396051;32;34546;-81
2023/03/22 01:15:48;;;;;;;;;;;;;;;8.51;70.09;99857.09;4398134;32;34070;-78
2023/03/22 01:18:16;;;;;;;;;;;;;;;9.07;66.58;99856.59;4412446;32;33300;-78
2023/03/22 01:20:44;;;;;;;;;;;;;;;9.39;63.38;99859.94;4393411;32;32858;-81
2023/03/22 01:23:11;;;;;;;;;;;;;;;9.58;62.21;99857.47;4378827;32;33729;-84
2023/03/22 01:25:39;;;;;;;;;;;;;;;9.37;62.50;99853.81;4381348;32;33924;-85
2023/03/22 01:28:07;;;;;;;;;;;;;;;8.84;64.56;99858.88;4403286;32;33209;-80
2023/03/22 01:30:34;;;;;;;;;;;;;;;7.97;67.98;99862.72;4389314;32;33490;-81
2023/03/22 01:33:02;;;;;;;;;;;;;;;7.55;70.94;99856.94;4406453;32;34219;-79
2023/03/22 01:35:31;;;;;;;;;;;;;;;7.71;71.02;99860.38;4391777;32;34745;-80
2023/03/22 01:37:59;;;;;;;;;;;;;;;7.68;71.46;99864.53;4401447;32;32836;-81
2023/03/22 01:40:27;;;;;;;;;;;;;;;7.25;72.87;99862.06;4398546;32;33172;-83
2023/03/22 01:42:55;;;;;;;;;;;;;;;7.44;72.20;99865.75;4400616;32;34134;-79
2023/03/22 01:45:29;;;;;;;;;;;;;;;8.03;70.16;99863.06;4401741;32;33956;-85
2023/03/22 01:50:48;;;;;;;;;;;;;;;9.39;62.95;99860.84;4394778;32;34216;-81
2023/03/22 01:53:17;;;;;;;;;;;;;;;9.39;62.79;99859.94;4381225;32;34139;-81
2023/03/22 01:55:45;;;;;;;;;;;;;;;8.13;66.18;99861.00;4383370;32;33587;-81
2023/03/22 01:58:16;;;;;;;;;;;;;;;7.56;70.49;99863.84;4395178;32;33342;-85
2023/03/22 02:00:45;;;;;;;;;;;;;;;7.04;73.54;99866.84;4387721;32;33645;-83
2023/03/22 02:03:14;;;;;;;;;;;;;;;8.05;69.70;99864.06;4391463;32;34080;-85
2023/03/22 02:05:42;;;;;;;;;;;;;;;7.94;69.46;99867.72;4377446;32;34402;-82
2023/03/22 02:08:13;;;;;;;;;;;;;;;7.98;68.99;99867.09;4396229;32;33184;-83
2023/03/22 02:10:42;;;;;;;;;;;;;;;7.74;69.93;99864.00;4384175;32;33419;-81
2023/03/22 02:13:28;;;;;;;;;;;;;;;6.96;72.58;99862.03;4384834;32;33518;-85
2023/03/22 02:16:01;;;;;;;;;;;;;;;6.65;73.99;99878.19;4401351;32;34268;-79
2023/03/22 02:18:37;;;;;;;;;;;;;;;6.63;73.34;99872.06;4399857;32;33932;-81
2023/03/22 02:21:26;;;;;;;;;;;;;;;6.95;73.12;99873.13;4377316;32;33910;-84
2023/03/22 02:23:56;;;;;;;;;;;;;;;7.80;68.87;99878.94;4392820;32;34474;-81
2023/03/22 02:26:45;;;;;;;;;;;;;;;7.56;68.95;99879.31;4390802;32;33206;-82
2023/03/22 02:29:16;;;;;;;;;;;;;;;6.53;74.53;99891.19;4397554;32;33252;-86
2023/03/22 02:31:47;;;;;;;;;;;;;;;6.81;73.89;99890.31;4387634;32;34519;-83
2023/03/22 02:34:34;;;;;;;;;;;;;;;6.16;76.13;99893.13;4401760;32;34197;-84
2023/03/22 02:37:05;;;;;;;;;;;;;;;6.32;76.15;99889.84;4389497;32;32674;-84
2023/03/22 02:39:41;;;;;;;;;;;;;;;6.60;74.54;99887.31;4379259;32;32806;-82
2023/03/22 02:42:12;;;;;;;;;;;;;;;6.41;74.76;99886.19;4402999;32;33912;-82
2023/03/22 02:44:58;;;;;;;;;;;;;;;5.97;76.87;99889.41;4378540;32;34489;-81
2023/03/22 02:47:39;;;;;;;;;;;;;;;6.07;76.90;99883.16;4402311;32;33778;-81
2023/03/22 02:50:09;;;;;;;;;;;;;;;6.62;74.99;99891.75;4411100;32;33351;-81
2023/03/22 02:52:43;;;;;;;;;;;;;;;6.47;74.87;99886.56;4398318;32;35626;-82
2023/03/22 02:55:19;;;;;;;;;;;;;;;6.45;76.17;99888.16;4394056;32;34550;-85
2023/03/22 02:57:48;;;;;;;;;;;;;;;6.89;74.67;99877.13;4382426;32;32905;-81
2023/03/22 03:00:16;;;;;;;;;;;;;;;6.72;74.97;99872.59;4389494;32;33781;-85
2023/03/22 03:02:46;;;;;;;;;;;;;;;7.51;72.22;99865.28;4389184;32;33627;-79
2023/03/22 03:05:14;;;;;;;;;;;;;;;6.71;75.37;99865.69;4391211;32;34059;-81
2023/03/22 03:07:42;;;;;;;;;;;;;;;6.87;74.35;99873.53;4364812;32;35108;-80
2023/03/22 03:10:11;;;;;;;;;;;;;;;6.48;75.22;99875.47;4383270;32;33012;-80
2023/03/22 03:12:40;;;;;;;;;;;;;;;6.22;76.73;99884.13;4397157;32;34051;-83
2023/03/22 03:15:15;;;;;;;;;;;;;;;6.07;77.97;99889.19;4385636;32;34698;-83
2023/03/22 03:17:52;;;;;;;;;;;;;;;6.14;78.77;99880.16;4387686;32;34656;-82
2023/03/22 03:20:28;;;;;;;;;;;;;;;7.04;75.24;99874.56;4416920;32;31741;-84
2023/03/22 03:23:18;;;;;;;;;;;;;;;7.36;73.62;99869.53;4375243;32;34181;-80
2023/03/22 03:25:48;;;;;;;;;;;;;;;6.85;75.11;99880.28;4396842;32;34561;-81
2023/03/22 03:28:28;;;;;;;;;;;;;;;6.72;75.38;99897.47;4402064;32;33013;-82
2023/03/22 03:30:58;;;;;;;;;;;;;;;6.65;76.19;99911.66;4399477;32;33834;-80
2023/03/22 03:33:25;;;;;;;;;;;;;;;7.24;74.32;99904.09;4387874;32;34860;-79
2023/03/22 03:35:55;;;;;;;;;;;;;;;7.83;71.30;99902.34;4390120;32;34249;-81
2023/03/22 03:38:24;;;;;;;;;;;;;;;6.55;75.75;99904.13;4377546;32;34876;-83
2023/03/22 03:41:00;;;;;;;;;;;;;;;7.01;76.31;99907.88;4379932;32;33400;-80
2023/03/22 03:43:27;;;;;;;;;;;;;;;6.36;78.85;99897.88;4382038;32;33808;-83
2023/03/22 03:45:54;;;;;;;;;;;;;;;6.14;80.31;99910.16;4389649;32;34506;-83
2023/03/22 03:48:22;;;;;;;;;;;;;;;6.29;79.90;99908.56;4396771;32;34301;-83
2023/03/22 03:50:51;;;;;;;;;;;;;;;7.15;77.10;99906.12;4379617;32;34118;-81
2023/03/22 03:53:18;;;;;;;;;;;;;;;7.33;74.15;99905.44;4373895;32;33713;-78
2023/03/22 03:55:46;;;;;;;;;;;;;;;7.21;76.20;99901.34;4391548;32;34218;-81
2023/03/22 03:58:15;;;;;;;;;;;;;;;7.95;73.07;99907.31;4400019;32;33692;-83
2023/03/22 04:00:45;;;;;;;;;;;;;;;7.47;74.78;99897.75;4398627;32;32520;-83
2023/03/22 04:03:13;;;;;;;;;;;;;;;6.50;79.96;99897.03;4408202;32;34272;-81
2023/03/22 04:05:42;;;;;;;;;;;;;;;6.31;80.75;99899.25;4401060;32;34737;-79
2023/03/22 04:08:09;;;;;;;;;;;;;;;6.37;80.63;99907.34;4445262;32;33738;-84
2023/03/22 04:10:37;;;;;;;;;;;;;;;6.20;81.55;99915.69;4443472;32;33462;-83
2023/03/22 04:13:05;;;;;;;;;;;;;;;7.35;76.89;99911.56;4399938;32;33797;-83
2023/03/22 04:15:32;;;;;;;;;;;;;;;7.64;75.70;99913.28;4412972;32;34215;-85
2023/03/22 04:18:00;;;;;;;;;;;;;;;8.02;74.71;99902.59;4384644;32;34972;-83
2023/03/22 04:20:28;;;;;;;;;;;;;;;7.29;76.34;99909.53;4398260;32;33151;-80
2023/03/22 04:22:59;;;;;;;;;;;;;;;6.64;80.06;99918.47;4430897;32;35754;-84
2023/03/22 04:25:29;;;;;;;;;;;;;;;7.04;77.97;99902.91;4451608;32;34941;-79
2023/03/22 04:27:59;;;;;;;;;;;;;;;7.53;76.46;99888.56;4390357;32;33874;-86
2023/03/22 04:30:29;;;;;;;;;;;;;;;7.71;75.72;99899.03;4439443;32;33822;-79
2023/03/22 04:32:57;;;;;;;;;;;;;;;6.76;79.39;99915.78;4416479;32;33504;-81
2023/03/22 04:35:25;;;;;;;;;;;;;;;6.44;80.98;99912.09;4440091;32;32796;-84
2023/03/22 04:37:53;;;;;;;;;;;;;;;6.43;83.03;99912.91;4380579;32;34171;-83
2023/03/22 04:40:20;;;;;;;;;;;;;;;6.78;81.58;99909.06;4394558;32;33428;-83
2023/03/22 04:42:47;;;;;;;;;;;;;;;7.07;80.29;99908.25;4392838;32;34285;-81
2023/03/22 04:45:15;;;;;;;;;;;;;;;6.99;80.81;99908.56;4401847;32;34209;-83
2023/03/22 04:47:43;;;;;;;;;;;;;;;7.02;80.46;99913.91;4396002;32;34787;-83
2023/03/22 04:50:11;;;;;;;;;;;;;;;7.17;80.01;99917.41;4422582;32;33556;-80
2023/03/22 04:52:40;;;;;;;;;;;;;;;7.75;77.51;99907.06;4387120;32;34188;-81
2023/03/22 04:55:07;;;;;;;;;;;;;;;7.65;76.95;99915.94;4390026;32;34075;-82
2023/03/22 04:57:35;;;;;;;;;;;;;;;6.96;79.84;99918.69;4428335;32;33379;-86
2023/03/22 05:00:07;;;;;;;;;;;;;;;7.81;76.94;99927.16;4387359;32;33167;-85
2023/03/22 05:02:37;;;;;;;;;;;;;;;8.37;74.02;99921.72;4417422;32;34235;-78
2023/03/22 05:05:08;;;;;;;;;;;;;;;8.60;73.55;99915.28;4415524;32;34720;-84
2023/03/22 05:07:38;;;;;;;;;;;;;;;8.07;74.73;99921.81;4445697;32;33672;-82
2023/03/22 05:10:05;;;;;;;;;;;;;;;7.15;79.57;99931.00;4402200;32;33992;-82
2023/03/22 05:12:33;;;;;;;;;;;;;;;7.19;79.77;99923.53;4433732;32;34046;-79
2023/03/22 05:15:03;;;;;;;;;;;;;;;6.72;81.69;99924.09;4405316;32;34100;-79
2023/03/22 05:17:31;;;;;;;;;;;;;;;6.81;82.07;99926.38;4410771;32;34089;-80
2023/03/22 05:20:08;;;;;;;;;;;;;;;7.20;80.53;99925.31;4428944;32;33453;-83
2023/03/22 05:22:39;;;;;;;;;;;;;;;7.29;80.35;99925.87;4446605;32;34863;-83
2023/03/22 05:25:08;;;;;;;;;;;;;;;7.80;78.67;99931.44;4376619;32;34160;-82
2023/03/22 05:27:37;;;;;;;;;;;;;;;8.10;77.46;99922.78;4380627;32;33192;-83
2023/03/22 05:30:06;;;;;;;;;;;;;;;8.41;76.51;99939.19;4441252;32;33046;-83
2023/03/22 05:32:36;;;;;;;;;;;;;;;8.75;74.15;99938.47;4397999;32;34481;-84
2023/03/22 05:35:05;;;;;;;;;;;;;;;7.35;80.15;99950.22;4430815;32;34149;-81
2023/03/22 05:37:32;;;;;;;;;;;;;;;7.50;80.02;99935.69;4399002;32;35012;-80
2023/03/22 05:40:01;;;;;;;;;;;;;;;7.76;80.12;99928.56;4400064;32;33060;-81
2023/03/22 05:42:29;;;;;;;;;;;;;;;7.91;79.48;99929.44;4387535;32;34668;-82
2023/03/22 05:44:56;;;;;;;;;;;;;;;8.18;78.72;99937.00;4423358;32;34192;-81
2023/03/22 05:47:24;;;;;;;;;;;;;;;8.55;77.04;99936.47;4393826;32;35784;-81
2023/03/22 05:49:52;;;;;;;;;;;;;;;8.78;75.64;99930.88;4401163;32;34082;-79
2023/03/22 05:52:21;;;;;;;;;;;;;;;8.25;78.01;99946.88;4392108;32;34871;-78
2023/03/22 05:54:49;;;;;;;;;;;;;;;8.15;78.52;99944.53;4420779;32;34112;-81
2023/03/22 05:57:17;;;;;;;;;;;;;;;9.37;73.88;99933.97;4431032;32;33298;-83
2023/03/22 05:59:44;;;;;;;;;;;;;;;8.69;76.01;99950.13;4392116;32;33272;-82
2023/03/22 06:02:16;;;;;;;;;;;;;;;8.38;77.32;99954.50;4417657;32;34897;-81
2023/03/22 06:04:43;;;;;;;;;;;;;;;9.64;73.30;99950.88;4382950;32;34911;-82
2023/03/22 06:07:11;;;;;;;;;;;;;;;10.27;69.91;99950.50;4393812;32;34437;-81
2023/03/22 06:09:39;;;;;;;;;;;;;;;10.13;71.00;99956.72;4385221;32;33582;-83
2023/03/22 06:12:07;;;;;;;;;;;;;;;10.54;69.36;99955.25;4398538;32;33452;-83
2023/03/22 06:14:35;;;;;;;;;;;;;;;10.58;69.09;99952.00;4398110;32;34893;-80
2023/03/22 06:17:02;;;;;;;;;;;;;;;9.90;70.82;99945.22;4433758;32;35008;-83
2023/03/22 06:19:30;;;;;;;;;;;;;;;9.79;71.76;99952.44;4383262;32;33633;-80
2023/03/22 06:22:00;;;;;;;;;;;;;;;10.24;71.31;99956.44;4405609;32;34856;-80
2023/03/22 06:24:27;;;;;;;;;;;;;;;10.85;69.43;99956.69;4398975;32;34244;-81
2023/03/22 06:26:55;;;;;;;;;;;;;;;10.78;69.29;99960.72;4399175;32;34464;-79
2023/03/22 06:29:22;;;;;;;;;;;;;;;10.90;69.19;99960.41;4398873;32;33654;-81
2023/03/22 06:31:50;;;;;;;;;;;;;;;10.43;70.67;99963.41;4408089;32;34401;-81
2023/03/22 06:34:18;;;;;;;;;;;;;;;10.30;71.91;99970.50;4397398;32;33769;-81
2023/03/22 06:36:45;;;;;;;;;;;;;;;9.79;73.51;99971.47;4399067;32;34168;-82
2023/03/22 06:39:13;;;;;;;;;;;;;;;10.36;72.38;99966.50;4385185;32;33935;-79
2023/03/22 06:41:42;;;;;;;;;;;;;;;10.87;70.17;99965.41;4398657;32;34255;-81
2023/03/22 06:44:09;;;;;;;;;;;;;;;11.83;66.84;99973.13;4406296;32;33805;-80
2023/03/22 06:46:37;;;;;;;;;;;;;;;12.25;64.87;99976.66;4401133;32;34007;-79
2023/03/22 06:49:05;;;;;;;;;;;;;;;11.87;65.60;99978.50;4386768;32;33604;-81
2023/03/22 06:51:33;;;;;;;;;;;;;;;11.93;65.76;99962.31;4402944;32;34247;-79
2023/03/22 06:54:03;;;;;;;;;;;;;;;11.43;67.59;99954.09;4406186;32;33484;-82
2023/03/22 06:56:31;;;;;;;;;;;;;;;11.54;67.69;99955.47;4403706;32;33975;-80
2023/03/22 06:58:59;;;;;;;;;;;;;;;12.22;65.88;99966.12;4417662;32;33849;-83
2023/03/22 07:01:27;;;;;;;;;;;;;;;12.60;64.24;99961.56;4383595;32;34228;-83
2023/03/22 07:03:55;;;;;;;;;;;;;;;12.82;63.36;99970.19;4391436;32;34188;-80
2023/03/22 07:06:22;;;;;;;;;;;;;;;12.20;66.52;99979.03;4389928;32;34372;-80
2023/03/22 07:08:50;;;;;;;;;;;;;;;11.92;67.41;99983.94;4407783;32;33440;-79
2023/03/22 07:11:18;;;;;;;;;;;;;;;12.07;67.39;99986.25;4371505;32;34909;-78
2023/03/22 07:13:46;;;;;;;;;;;;;;;11.46;68.84;99980.19;4406200;32;34683;-81
2023/03/22 07:16:14;;;;;;;;;;;;;;;12.73;65.18;99989.81;4398994;32;34068;-79
2023/03/22 07:18:44;;;;;;;;;;;;;;;12.85;64.28;99978.13;4403018;32;33083;-74
2023/03/22 07:21:12;;;;;;;;;;;;;;;12.93;64.13;99974.09;4407765;32;33892;-80
2023/03/22 07:23:40;;;;;;;;;;;;;;;13.31;62.83;99975.56;4388562;32;34142;-82
2023/03/22 07:26:07;;;;;;;;;;;;;;;13.27;62.48;99983.16;4417353;32;34547;-81
2023/03/22 07:28:35;;;;;;;;;;;;;;;13.49;61.42;99985.75;4393833;32;33488;-81
2023/03/22 07:31:04;;;;;;;;;;;;;;;14.04;59.25;99983.28;4398386;32;34261;-83
2023/03/22 07:33:32;;;;;;;;;;;;;;;12.87;62.86;99987.75;4397510;32;34181;-82
2023/03/22 07:36:00;;;;;;;;;;;;;;;13.26;61.71;99984.88;4396494;32;34120;-84
2023/03/22 07:38:28;;;;;;;;;;;;;;;13.61;60.34;99982.69;4407334;32;34235;-83
2023/03/22 07:40:55;;;;;;;;;;;;;;;12.39;62.86;99996.25;4398287;32;34604;-79
2023/03/22 07:43:23;;;;;;;;;;;;;;;13.32;60.78;99985.13;4397626;32;33993;-80
2023/03/22 07:45:52;;;;;;;;;;;;;;;13.28;60.86;99977.13;4414969;32;33666;-81
2023/03/22 07:48:24;;;;;;;;;;;;;;;13.84;59.61;99980.88;4387652;32;33704;-78
2023/03/22 07:50:55;;;;;;;;;;;;;;;14.36;58.18;99981.75;4397825;32;34037;-82
2023/03/22 07:53:23;;;;;;;;;;;;;;;14.21;57.73;99982.12;4396161;32;35007;-81
2023/03/22 07:55:50;;;;;;;;;;;;;;;14.39;57.09;99987.06;4387835;32;35052;-82
2023/03/22 07:58:18;;;;;;;;;;;;;;;13.74;57.65;99984.00;4408932;32;32585;-81
2023/03/22 08:00:48;;;;;;;;;;;;;;;14.32;56.43;99970.34;4439518;32;34124;-81
2023/03/22 08:03:17;;;;;;;;;;;;;;;14.71;54.74;99969.84;4434360;32;34078;-81
2023/03/22 08:05:47;;;;;;;;;;;;;;;14.94;54.07;99967.06;4396163;32;32452;-78
2023/03/22 08:08:14;;;;;;;;;;;;;;;15.01;54.26;99963.81;4453437;32;33452;-80
2023/03/22 08:10:47;;;;;;;;;;;;;;;14.73;54.44;99965.56;4416025;32;34516;-81
2023/03/22 08:13:15;;;;;;;;;;;;;;;14.36;55.82;99971.31;4425691;32;35028;-82
2023/03/22 08:15:42;;;;;;;;;;;;;;;14.86;54.18;99974.66;4438107;32;33790;-80
2023/03/22 08:18:10;;;;;;;;;;;;;;;15.03;53.13;99975.16;4382626;32;34334;-78
2023/03/22 08:20:37;;;;;;;;;;;;;;;15.51;51.75;99976.50;4380976;32;34926;-79
2023/03/22 08:23:10;;;;;;;;;;;;;;;14.50;53.72;99984.78;4389121;32;35218;-81
2023/03/22 08:25:39;;;;;;;;;;;;;;;14.52;53.89;99984.00;4419234;32;34705;-79
2023/03/22 08:28:08;;;;;;;;;;;;;;;15.26;52.83;99977.53;4396864;32;34260;-80
2023/03/22 08:30:36;;;;;;;;;;;;;;;15.39;52.58;99976.16;4447036;32;35469;-82
2023/03/22 08:33:05;;;;;;;;;;;;;;;15.43;51.87;99973.72;4391558;32;33776;-79
2023/03/22 08:35:32;;;;;;;;;;;;;;;15.65;51.39;99974.28;4437435;32;220227;-80
2023/03/22 08:38:00;;;;;;;;;;;;;;;15.83;51.27;99985.25;4403410;32;34059;-81
2023/03/22 08:40:28;;;;;;;;;;;;;;;15.74;51.53;99979.78;4413074;32;32462;-80
2023/03/22 08:42:56;;;;;;;;;;;;;;;15.81;50.93;99992.16;4399543;32;33988;-81
2023/03/22 08:45:23;;;;;;;;;;;;;;;15.30;51.29;99995.06;4420336;32;33984;-81
2023/03/22 08:47:51;;;;;;;;;;;;;;;13.94;54.59;99993.37;4412985;32;33574;-80
2023/03/22 08:50:20;;;;;;;;;;;;;;;15.10;52.19;99984.03;4365384;32;35118;-80
2023/03/22 08:52:48;;;;;;;;;;;;;;;14.02;56.18;99982.34;4439458;32;33852;-81
2023/03/22 08:55:16;;;;;;;;;;;;;;;13.73;55.98;99985.75;4426806;32;34464;-82
2023/03/22 08:57:49;;;;;;;;;;;;;;;14.67;53.88;99986.22;4396085;32;31718;-79
2023/03/22 09:00:17;;;;;;;;;;;;;;;15.42;52.02;99977.16;4396823;32;33444;-81
2023/03/22 09:02:44;;;;;;;;;;;;;;;14.62;53.77;99974.81;4387192;32;34077;-81
2023/03/22 09:05:13;;;;;;;;;;;;;;;14.66;53.44;99980.97;4418296;32;33981;-80
2023/03/22 09:07:40;;;;;;;;;;;;;;;15.02;52.89;99977.72;4448241;32;34280;-80
2023/03/22 09:10:08;;;;;;;;;;;;;;;15.09;53.89;99980.56;4403232;32;34689;-80
2023/03/22 09:12:36;;;;;;;;;;;;;;;14.85;53.94;99987.63;4446374;32;34809;-81
2023/03/22 09:15:06;;;;;;;;;;;;;;;14.47;54.15;99987.31;4408898;32;33917;-82
2023/03/22 09:17:34;;;;;;;;;;;;;;;14.28;54.78;99991.91;4439034;32;33553;-80
2023/03/22 09:20:02;;;;;;;;;;;;;;;14.14;55.08;99995.81;4423089;32;34249;-79
2023/03/22 09:22:39;;;;;;;;;;;;;;;14.02;55.69;99992.75;4439871;32;34417;-78
2023/03/22 09:25:08;;;;;;;;;;;;;;;13.70;56.57;99993.44;4408661;32;34247;-81
2023/03/22 09:27:40;;;;;;;;;;;;;;;14.64;54.66;99983.56;4390467;32;33350;-79
2023/03/22 09:30:08;;;;;;;;;;;;;;;14.94;54.41;99975.75;4453737;32;33762;-83
2023/03/22 09:32:35;;;;;;;;;;;;;;;14.40;55.96;99977.53;4382694;32;32915;-82
2023/03/22 09:35:03;;;;;;;;;;;;;;;14.60;55.61;99981.66;4403626;32;34915;-79
2023/03/22 09:37:31;;;;;;;;;;;;;;;14.44;55.66;99979.38;4429430;32;34450;-82
2023/03/22 09:40:00;;;;;;;;;;;;;;;14.26;55.08;99972.75;4439943;32;32224;-82
2023/03/22 09:42:30;;;;;;;;;;;;;;;14.36;54.90;99982.62;4395777;32;32606;-78
2023/03/22 09:44:58;;;;;;;;;;;;;;;14.75;54.17;99970.81;4441392;32;35030;-82
2023/03/22 09:47:55;;;;;;;;;;;;;;;14.91;55.17;99967.88;4420289;32;34131;-80
2023/03/22 09:50:25;;;;;;;;;;;;;;;14.74;53.89;99969.94;4390981;32;33490;-82
2023/03/22 09:52:52;;;;;;;;;;;;;;;14.54;55.89;99973.62;4382157;32;33689;-82
2023/03/22 09:55:22;;;;;;;;;;;;;;;14.10;57.57;99973.06;4422566;32;33433;-83
2023/03/22 09:57:56;;;;;;;;;;;;;;;13.90;56.54;99973.28;4392767;32;33483;-80
2023/03/22 10:00:23;;;;;;;;;;;;;;;13.76;57.44;99974.53;4394066;32;34811;-80
2023/03/22 10:03:11;;;;;;;;;;;;;;;13.62;58.32;99974.06;4438945;32;35066;-81
2023/03/22 10:05:53;;;;;;;;;;;;;;;13.67;58.65;99976.81;4406672;32;34637;-81
2023/03/22 10:08:30;;;;;;;;;;;;;;;13.61;58.94;99971.41;4396238;32;33712;-81
2023/03/22 10:10:57;;;;;;;;;;;;;;;13.73;58.42;99971.81;4400163;32;34909;-82
2023/03/22 10:13:28;;;;;;;;;;;;;;;14.02;57.82;99969.31;4427268;32;33979;-80
2023/03/22 10:15:59;;;;;;;;;;;;;;;13.64;57.88;99969.78;4403562;32;33991;-80
2023/03/22 10:18:37;;;;;;;;;;;;;;;13.72;58.59;99975.25;4408920;32;33679;-79
2023/03/22 10:21:05;;;;;;;;;;;;;;;13.47;58.23;99971.78;4408917;32;33650;-78
2023/03/22 10:23:34;;;;;;;;;;;;;;;13.63;57.99;99965.41;4400601;32;33869;-79
2023/03/22 10:26:01;;;;;;;;;;;;;;;13.53;57.76;99969.41;4412553;32;34509;-81
2023/03/22 10:28:40;;;;;;;;;;;;;;;13.49;58.70;99967.53;4399893;32;33588;-78
2023/03/22 10:31:14;;;;;;;;;;;;;;;13.59;58.96;99967.84;4396321;32;34804;-80
2023/03/22 10:33:53;;;;;;;;;;;;;;;13.86;58.23;99968.81;4390119;32;34495;-80
2023/03/22 10:36:22;;;;;;;;;;;;;;;13.90;58.56;99969.78;4420595;32;34441;-81
2023/03/22 10:38:52;;;;;;;;;;;;;;;13.60;58.13;99964.41;4387111;32;32857;-82
2023/03/22 10:41:19;;;;;;;;;;;;;;;13.72;58.54;99965.72;4430466;32;34036;-79
2023/03/22 10:43:49;;;;;;;;;;;;;;;13.70;59.11;99963.91;4423173;32;34983;-79
2023/03/22 10:46:17;;;;;;;;;;;;;;;13.67;59.50;99966.41;4438196;32;34813;-81
2023/03/22 10:48:45;;;;;;;;;;;;;;;13.54;59.19;99965.97;4390005;32;30758;-77
2023/03/22 10:51:32;;;;;;;;;;;;;;;13.93;59.14;99962.97;4380806;32;34377;-81
2023/03/22 10:54:00;;;;;;;;;;;;;;;14.19;58.30;99962.94;4407746;32;33624;-81
2023/03/22 10:56:28;;;;;;;;;;;;;;;14.01;58.46;99957.16;4409922;32;34438;-79
2023/03/22 10:58:58;;;;;;;;;;;;;;;13.89;58.96;99963.72;4410628;32;33876;-78
2023/03/22 11:01:27;;;;;;;;;;;;;;;14.12;58.12;99961.88;4391287;32;35668;-80
2023/03/22 11:03:56;;;;;;;;;;;;;;;14.29;58.89;99959.81;4416470;32;33988;-81
2023/03/22 11:06:28;;;;;;;;;;;;;;;14.43;57.97;99952.44;4407853;32;32741;-80
2023/03/22 11:08:57;;;;;;;;;;;;;;;14.42;56.96;99955.00;4410493;32;33378;-80
2023/03/22 11:11:25;;;;;;;;;;;;;;;14.26;57.54;99949.28;4395676;32;34271;-81
2023/03/22 11:13:52;;;;;;;;;;;;;;;14.44;57.53;99943.78;4425627;32;34021;-81
2023/03/22 11:16:20;;;;;;;;;;;;;;;14.32;57.06;99944.28;4417373;32;33915;-82
2023/03/22 11:18:47;;;;;;;;;;;;;;;14.73;56.41;99936.88;4428410;32;34039;-81
2023/03/22 11:21:16;;;;;;;;;;;;;;;14.67;56.56;99936.69;4430873;32;33196;-78
2023/03/22 11:23:54;;;;;;;;;;;;;;;14.77;57.34;99919.59;4398550;32;33883;-78
2023/03/22 11:26:26;;;;;;;;;;;;;;;14.90;56.67;99919.13;4407565;32;34464;-81
2023/03/22 11:29:01;;;;;;;;;;;;;;;15.19;56.40;99920.81;4418535;32;33078;-79
2023/03/22 11:31:29;;;;;;;;;;;;;;;15.11;53.93;99918.88;4410482;32;34684;-85
2023/03/22 11:33:58;;;;;;;;;;;;;;;15.44;55.01;99918.03;4393142;32;34292;-79
2023/03/22 11:36:25;;;;;;;;;;;;;;;15.47;54.07;99912.91;4421754;32;34350;-82
2023/03/22 11:38:57;;;;;;;;;;;;;;;15.20;55.04;99906.91;4401240;32;34355;-84
2023/03/22 11:41:26;;;;;;;;;;;;;;;15.86;52.68;99903.50;4410630;32;34198;-77
2023/03/22 11:43:57;;;;;;;;;;;;;;;16.02;52.68;99903.00;4406403;32;34267;-78
2023/03/22 11:46:25;;;;;;;;;;;;;;;16.46;51.36;99895.31;4416627;32;34419;-82
2023/03/22 11:48:55;;;;;;;;;;;;;;;17.35;49.47;99885.84;4398399;32;33959;-80
2023/03/22 11:51:28;;;;;;;;;;;;;;;17.43;49.26;99892.09;4378914;32;33853;-79
2023/03/22 11:54:02;;;;;;;20.58;10.77;;;;;;;17.77;48.51;99889.19;4388410;32;33705;-78
2023/03/22 11:56:30;;;;;;;19.23;11.60;;;;;;;17.19;49.75;99895.16;4422335;32;34703;-82
2023/03/22 11:59:08;;;;;;;16.70;11.07;;;;;;;17.69;48.71;99892.56;4397696;32;33606;-84
2023/03/22 12:01:43;;;;;;;17.90;10.70;;;;;;;18.30;46.67;99885.69;4387750;32;34443;-80
2023/03/22 12:04:19;;;;;;;16.85;10.63;;;;;;;17.52;46.68;99888.78;4393105;32;34576;-80
2023/03/22 12:06:47;;;;;;;;;;;;;;;18.12;46.62;99884.56;4423371;32;34945;-80
2023/03/22 12:09:25;;;;;;;;;;;;;;;18.46;45.87;99892.91;4420960;32;33982;-82
2023/03/22 12:11:54;;;;;;;;;;;;;;;18.27;46.46;99887.41;4414244;32;33858;-79
2023/03/22 12:14:26;;;;;;;;;;;;;;;17.08;49.29;99892.31;4398270;32;33965;-82
2023/03/22 12:16:53;;;;;;;;;;;;;;;16.94;49.19;99893.78;4415341;32;34937;-84
2023/03/22 12:19:29;;;;;;;;;;;;;;;16.42;49.65;99890.88;4432916;32;33575;-83
2023/03/22 12:21:57;;;;;;;;;;;;;;;16.23;49.38;99881.72;4432136;32;34236;-78
2023/03/22 12:24:29;;;;;;;;;;;;;;;16.61;48.78;99888.66;4407167;32;33679;-79
2023/03/22 12:26:59;;;;;;;;;;;;;;;16.85;49.30;99883.09;4390101;32;35045;-83
2023/03/22 12:29:27;;;;;;;;;;;;;;;17.01;50.39;99885.16;4394967;32;32805;-80
2023/03/22 12:31:59;;;;;;;;;;;;;;;16.98;50.01;99887.75;4407390;32;33468;-84
2023/03/22 12:34:32;;;;;;;;;;;;;;;16.52;49.42;99878.87;4425222;32;34186;-81
2023/03/22 12:37:00;;;;;;;;;;;;;;;16.82;49.21;99880.41;4396032;32;33680;-81
2023/03/22 12:39:29;;;;;;;;;;;;;;;16.77;47.35;99880.28;4407560;32;33748;-81
2023/03/22 12:41:59;;;;;;;;;;;;;;;16.83;46.83;99879.59;4413770;32;34654;-79
2023/03/22 12:44:27;;;;;;;;;;;;;;;16.67;47.34;99876.59;4396640;32;34065;-82
2023/03/22 12:46:55;;;;;;;;;;;;;;;16.81;47.16;99883.88;4423310;32;34087;-79
2023/03/22 12:49:26;;;;;;;;;;;;;;;16.84;47.57;99881.31;4382184;32;33413;-83
2023/03/22 12:51:55;;;;;;;;;;;;;;;17.58;46.13;99880.16;4396854;32;33478;-79
2023/03/22 12:54:23;;;;;;;;;;;;;;;17.09;46.27;99873.16;4368938;32;33439;-79
2023/03/22 12:56:50;;;;;;;;;;;;;;;16.86;45.87;99874.38;4404346;32;34430;-81
2023/03/22 12:59:19;;;;;;;;;;;;;;;16.98;45.87;99869.44;4398695;32;34116;-78
2023/03/22 13:02:10;;;;;;;;;;;;;;;16.76;46.33;99867.19;4383577;32;33975;-80
2023/03/22 13:04:41;;;;;;;;;;;;;;;17.22;47.23;99862.91;4401154;32;34197;-81
2023/03/22 13:07:18;;;;;;;;;;;;;;;17.98;44.34;99852.00;4436925;32;34056;-80